Time;durP1;ratioP1;P1;durP2;ratioP2;P2;SDS_P1;SDS_P2;PMS_P1;PMS_P2;Temp;Humidity;BMP_temperature;BMP_pressure;BME280_temperature;BME280_humidity;BME280_pressure;Samples;Min_cycle;Max_cycle;Signal;HPM_P1;HPM_P2
2023/03/07 00:01:43;;;;;;;2.70;2.50;;;16.40;56.20;;;;;;5037012;28;20205;-64
2023/03/07 00:04:32;;;;;;;3.47;2.95;;;16.50;56.30;;;;;;5037577;28;20283;-64
2023/03/07 00:07:20;;;;;;;3.97;2.72;;;16.50;56.70;;;;;;5036897;28;20928;-66
2023/03/07 00:10:10;;;;;;;2.95;2.60;;;16.40;56.90;;;;;;5037047;28;20285;-64
2023/03/07 00:12:58;;;;;;;2.50;2.30;;;16.30;58.00;;;;;;5035960;28;20685;-64
2023/03/07 00:15:46;;;;;;;3.33;2.63;;;16.40;58.20;;;;;;5036297;28;20305;-65
2023/03/07 00:18:35;;;;;;;3.28;2.97;;;16.30;58.20;;;;;;5037148;28;20222;-66
2023/03/07 00:21:26;;;;;;;2.45;2.20;;;16.50;58.20;;;;;;5036527;28;20685;-64
2023/03/07 00:24:14;;;;;;;3.00;2.50;;;16.50;58.20;;;;;;5037323;28;20260;-65
2023/03/07 00:27:02;;;;;;;2.67;2.35;;;16.60;58.00;;;;;;5037303;28;20245;-65
2023/03/07 00:29:50;;;;;;;3.30;2.78;;;16.60;57.80;;;;;;5037215;28;20229;-63
2023/03/07 00:32:38;;;;;;;2.80;2.60;;;16.60;57.70;;;;;;5036643;28;20265;-65
2023/03/07 00:35:26;;;;;;;2.85;2.60;;;16.60;57.90;;;;;;5036359;28;20683;-65
2023/03/07 00:38:15;;;;;;;2.63;2.42;;;16.60;57.60;;;;;;5035788;28;20655;-65
2023/03/07 00:41:06;;;;;;;2.60;2.35;;;16.70;57.60;;;;;;5036239;28;20586;-66
2023/03/07 00:43:55;;;;;;;2.78;2.55;;;16.70;57.60;;;;;;5035971;28;20645;-64
2023/03/07 00:46:43;;;;;;;2.85;2.60;;;17.00;73.60;;;;;;5035594;28;20685;-69
2023/03/07 00:49:31;;;;;;;3.70;3.30;;;16.70;56.70;;;;;;5035313;28;20246;-65
2023/03/07 00:52:19;;;;;;;3.58;3.22;;;16.70;56.20;;;;;;5035924;28;20207;-65
2023/03/07 00:55:10;;;;;;;4.22;3.05;;;16.80;56.30;;;;;;5035640;28;20233;-65
2023/03/07 00:57:58;;;;;;;3.50;3.20;;;16.80;56.40;;;;;;5034248;28;20267;-66
2023/03/07 01:00:46;;;;;;;4.50;3.10;;;16.80;56.30;;;;;;5058670;23;20669;-63
2023/03/07 01:03:35;;;;;;;3.55;3.25;;;16.70;56.10;;;;;;5035471;28;20586;-64
2023/03/07 01:06:24;;;;;;;3.58;3.28;;;16.70;56.20;;;;;;5034663;28;20296;-63
2023/03/07 01:09:12;;;;;;;3.78;3.38;;;16.70;56.40;;;;;;5034390;28;20202;-63
2023/03/07 01:12:05;;;;;;;4.13;3.67;;;16.60;56.20;;;;;;5034099;28;20268;-64
2023/03/07 01:14:54;;;;;;;3.90;3.55;;;16.60;56.40;;;;;;5032993;28;20205;-63
2023/03/07 01:17:42;;;;;;;4.40;3.53;;;16.50;56.20;;;;;;5033739;28;20244;-63
2023/03/07 01:20:31;;;;;;;3.30;3.00;;;16.50;56.60;;;;;;5033459;28;20213;-63
2023/03/07 01:23:19;;;;;;;3.50;3.20;;;16.40;56.60;;;;;;5033754;28;20682;-66
2023/03/07 01:26:11;;;;;;;2.92;2.38;;;16.40;57.10;;;;;;5031806;28;20565;-65
2023/03/07 01:29:02;;;;;;;3.08;2.83;;;16.30;58.40;;;;;;5032475;28;20677;-65
2023/03/07 01:31:50;;;;;;;2.83;2.25;;;16.30;58.20;;;;;;5033045;28;20226;-66
2023/03/07 01:34:38;;;;;;;2.63;2.28;;;16.40;58.50;;;;;;5032025;28;20220;-65
2023/03/07 01:37:27;;;;;;;2.67;2.42;;;16.50;58.40;;;;;;5031510;28;20222;-66
2023/03/07 01:40:15;;;;;;;3.08;2.60;;;16.50;58.10;;;;;;5033298;28;20217;-66
2023/03/07 01:43:23;;;;;;;4.05;3.33;;;16.60;58.10;;;;;;5032103;28;20265;-66
2023/03/07 01:46:43;;;;;;;4.25;3.20;;;16.60;57.80;;;;;;5032273;28;20194;-66
2023/03/07 01:49:34;;;;;;;6.97;3.33;;;16.70;57.80;;;;;;5032449;28;20729;-66
2023/03/07 01:52:24;;;;;;;3.63;2.80;;;16.70;57.80;;;;;;5033031;28;20288;-65
2023/03/07 01:55:16;;;;;;;3.67;3.17;;;16.70;57.70;;;;;;5032984;28;20804;-66
2023/03/07 01:58:08;;;;;;;3.80;3.50;;;16.80;58.00;;;;;;5031749;28;20271;-66
2023/03/07 02:00:56;;;;;;;3.75;3.42;;;16.80;57.40;;;;;;5032883;28;20799;-66
2023/03/07 02:03:50;;;;;;;4.57;3.90;;;16.80;57.40;;;;;;5031186;28;20198;-66
2023/03/07 02:06:39;;;;;;;6.05;4.53;;;16.80;57.10;;;;;;5031617;28;20409;-66
2023/03/07 02:09:28;;;;;;;4.53;3.72;;;16.80;57.00;;;;;;5031866;28;20282;-65
2023/03/07 02:12:16;;;;;;;4.32;3.30;;;16.80;56.80;;;;;;5032372;28;20332;-66
2023/03/07 02:15:05;;;;;;;5.20;4.63;;;16.80;56.60;;;;;;5031524;28;20698;-66
2023/03/07 02:17:53;;;;;;;6.38;5.13;;;16.90;56.50;;;;;;5034279;28;20307;-64
2023/03/07 02:20:47;;;;;;;6.20;4.85;;;16.90;56.40;;;;;;5033028;28;20225;-64
2023/03/07 02:23:43;;;;;;;6.75;5.15;;;16.90;56.40;;;;;;5033241;28;20205;-63
2023/03/07 02:26:42;;;;;;;6.93;5.57;;;16.80;56.60;;;;;;5034142;28;20205;-64
2023/03/07 02:29:30;;;;;;;7.63;5.90;;;16.70;56.50;;;;;;5032836;28;20578;-64
2023/03/07 02:32:18;;;;;;;7.68;5.10;;;16.70;56.70;;;;;;5033106;28;20229;-64
2023/03/07 02:35:13;;;;;;;6.65;5.75;;;16.60;56.90;;;;;;5030086;28;20209;-63
2023/03/07 02:38:04;;;;;;;7.53;5.53;;;16.50;56.80;;;;;;5032934;28;20638;-63
2023/03/07 02:40:54;;;;;;;8.48;6.80;;;16.40;56.70;;;;;;5032864;28;20287;-64
2023/03/07 02:43:44;;;;;;;7.03;5.65;;;16.40;57.10;;;;;;5033115;28;20333;-63
2023/03/07 02:46:32;;;;;;;6.13;4.95;;;16.40;57.10;;;;;;5032825;28;20190;-64
2023/03/07 02:49:20;;;;;;;7.00;4.47;;;16.30;57.40;;;;;;5032535;28;20681;-63
2023/03/07 02:52:09;;;;;;;4.65;3.83;;;16.30;58.40;;;;;;5033036;28;20205;-63
2023/03/07 02:54:57;;;;;;;4.53;3.22;;;16.30;58.60;;;;;;5032305;28;20201;-63
2023/03/07 02:57:46;;;;;;;5.72;4.22;;;16.40;58.60;;;;;;5032457;28;20210;-63
2023/03/07 03:00:35;;;;;;;5.57;4.15;;;16.50;58.50;;;;;;5032847;28;20225;-63
2023/03/07 03:03:23;;;;;;;5.40;3.60;;;16.60;58.40;;;;;;5032715;28;20237;-63
2023/03/07 03:06:11;;;;;;;5.40;4.05;;;16.70;58.30;;;;;;5032426;28;20229;-64
2023/03/07 03:09:00;;;;;;;4.28;3.88;;;16.70;58.10;;;;;;5032526;28;20729;-63
2023/03/07 03:11:48;;;;;;;5.70;4.13;;;16.70;58.10;;;;;;5032597;28;20249;-63
2023/03/07 03:14:36;;;;;;;6.10;4.30;;;16.80;58.00;;;;;;5032625;28;20209;-63
2023/03/07 03:17:25;;;;;;;5.50;4.18;;;16.80;57.90;;;;;;5032776;28;20214;-64
2023/03/07 03:20:15;;;;;;;5.90;4.70;;;16.80;57.90;;;;;;5032717;28;20222;-63
2023/03/07 03:23:04;;;;;;;5.78;4.60;;;16.80;58.00;;;;;;5033059;28;20240;-64
2023/03/07 03:25:58;;;;;;;8.05;5.20;;;16.80;57.70;;;;;;5035966;28;20686;-63
2023/03/07 03:28:46;;;;;;;5.25;4.28;;;16.80;57.70;;;;;;5037018;28;20277;-64
2023/03/07 03:31:34;;;;;;;7.68;5.47;;;16.80;57.70;;;;;;5038383;28;20226;-64
2023/03/07 03:34:24;;;;;;;6.95;5.53;;;16.90;57.50;;;;;;5045872;28;20198;-63
2023/03/07 03:37:12;;;;;;;5.88;5.20;;;16.90;57.20;;;;;;5040826;28;20257;-64
2023/03/07 03:40:00;;;;;;;7.00;5.40;;;17.00;72.90;;;;;;5037519;28;20206;-64
2023/03/07 03:42:49;;;;;;;8.43;6.40;;;16.90;56.80;;;;;;5036913;28;20213;-66
2023/03/07 03:45:39;;;;;;;6.15;5.55;;;16.90;56.70;;;;;;5033965;28;20206;-65
2023/03/07 03:48:27;;;;;;;7.28;6.07;;;16.80;56.90;;;;;;5035018;28;20194;-67
2023/03/07 03:51:17;;;;;;;5.60;4.68;;;16.80;57.00;;;;;;5034923;28;20257;-65
2023/03/07 03:54:05;;;;;;;6.78;5.38;;;16.70;57.10;;;;;;5034873;28;20632;-66
2023/03/07 03:56:53;;;;;;;6.65;5.15;;;16.70;56.90;;;;;;5034216;28;20241;-66
2023/03/07 03:59:41;;;;;;;6.10;5.50;;;16.60;57.00;;;;;;5034695;28;20194;-66
2023/03/07 04:02:31;;;;;;;4.90;4.32;;;16.60;56.90;;;;;;5035103;28;20281;-66
2023/03/07 04:05:20;;;;;;;5.50;4.10;;;16.60;57.10;;;;;;5034414;28;20198;-65
2023/03/07 04:08:10;;;;;;;5.35;4.32;;;16.50;57.50;;;;;;5034867;28;20279;-66
2023/03/07 04:10:58;;;;;;;5.78;3.72;;;16.50;58.20;;;;;;5034770;28;20579;-65
2023/03/07 04:13:46;;;;;;;4.25;3.80;;;16.50;58.50;;;;;;5034667;28;20202;-65
2023/03/07 04:16:35;;;;;;;5.10;3.85;;;16.40;58.50;;;;;;5033847;28;20633;-66
2023/03/07 04:19:24;;;;;;;3.97;3.33;;;16.50;58.60;;;;;;5034474;28;20590;-66
2023/03/07 04:22:12;;;;;;;5.00;3.58;;;16.60;58.60;;;;;;5034342;28;20202;-66
2023/03/07 04:25:01;;;;;;;6.38;4.18;;;16.60;58.50;;;;;;5034857;28;20613;-63
2023/03/07 04:27:49;;;;;;;7.97;5.10;;;16.60;58.50;;;;;;5035183;28;20232;-64
2023/03/07 04:30:37;;;;;;;7.22;4.47;;;16.60;58.40;;;;;;5035252;28;20250;-63
2023/03/07 04:33:26;;;;;;;4.82;4.13;;;16.60;58.40;;;;;;5035342;28;20202;-64
2023/03/07 04:36:16;;;;;;;4.22;3.80;;;16.60;58.30;;;;;;5033890;28;20194;-64
2023/03/07 04:39:04;;;;;;;4.55;3.78;;;16.60;58.30;;;;;;5035261;28;20242;-63
2023/03/07 04:41:53;;;;;;;5.80;4.53;;;16.60;58.10;;;;;;5034999;28;20308;-63
2023/03/07 04:44:41;;;;;;;5.75;4.90;;;16.60;58.10;;;;;;5035120;28;20229;-64
2023/03/07 04:47:29;;;;;;;6.10;4.32;;;16.70;58.00;;;;;;5047956;28;20236;-63
2023/03/07 04:50:18;;;;;;;4.97;4.13;;;16.70;58.30;;;;;;5048364;28;20236;-63
2023/03/07 04:53:06;;;;;;;5.03;4.43;;;16.70;57.80;;;;;;5047637;28;20202;-63
2023/03/07 04:55:58;;;;;;;6.05;5.38;;;16.80;57.80;;;;;;5035632;28;20202;-63
2023/03/07 04:58:47;;;;;;;4.50;4.07;;;16.80;57.60;;;;;;5035645;28;20281;-63
2023/03/07 05:01:35;;;;;;;7.50;5.15;;;16.80;57.50;;;;;;5034484;28;20279;-63
2023/03/07 05:04:23;;;;;;;6.03;4.78;;;16.80;57.40;;;;;;5032960;28;20208;-66
2023/03/07 05:07:12;;;;;;;6.53;5.05;;;16.80;57.60;;;;;;5033826;28;20277;-65
2023/03/07 05:10:00;;;;;;;6.82;4.63;;;16.80;73.70;;;;;;5032749;28;20233;-66
2023/03/07 05:12:48;;;;;;;5.50;4.88;;;16.70;57.80;;;;;;5032645;28;20292;-66
2023/03/07 05:15:37;;;;;;;5.50;4.50;;;16.70;57.80;;;;;;5033131;28;20210;-65
2023/03/07 05:18:26;;;;;;;5.85;4.40;;;16.60;58.00;;;;;;5033154;28;20218;-66
2023/03/07 05:21:14;;;;;;;4.43;3.72;;;16.50;58.00;;;;;;5033438;28;20222;-66
2023/03/07 05:24:03;;;;;;;5.60;4.28;;;16.50;58.80;;;;;;5032807;28;20241;-65
2023/03/07 05:26:51;;;;;;;4.82;3.92;;;16.40;58.90;;;;;;5033040;28;20237;-65
2023/03/07 05:29:39;;;;;;;4.32;3.55;;;16.40;59.00;;;;;;5033109;28;20198;-66
2023/03/07 05:32:29;;;;;;;3.08;2.75;;;16.50;59.00;;;;;;5033022;28;20756;-66
2023/03/07 05:35:17;;;;;;;4.03;3.22;;;16.50;58.90;;;;;;5032726;28;20606;-66
2023/03/07 05:38:06;;;;;;;3.70;3.40;;;16.60;58.90;;;;;;5032980;28;20703;-66
2023/03/07 05:40:54;;;;;;;4.50;3.78;;;16.60;58.90;;;;;;5033014;28;20287;-66
2023/03/07 05:43:42;;;;;;;4.28;3.13;;;16.60;58.80;;;;;;5033018;28;20198;-65
2023/03/07 05:46:30;;;;;;;5.30;3.78;;;16.60;58.80;;;;;;5032750;28;20285;-66
2023/03/07 05:49:19;;;;;;;4.03;3.63;;;16.60;58.70;;;;;;5034236;28;20240;-65
2023/03/07 05:52:08;;;;;;;5.25;3.80;;;16.60;58.70;;;;;;5034325;28;20226;-64
2023/03/07 05:54:56;;;;;;;5.60;4.10;;;16.70;58.60;;;;;;5036130;28;20232;-63
2023/03/07 05:57:44;;;;;;;3.90;3.47;;;16.70;58.40;;;;;;5036463;28;20578;-65
2023/03/07 06:00:32;;;;;;;6.38;4.05;;;16.70;58.50;;;;;;5033834;28;20233;-64
2023/03/07 06:03:20;;;;;;;6.28;4.10;;;16.70;58.20;;;;;;5033681;28;20280;-66
2023/03/07 06:06:11;;;;;;;6.82;5.07;;;16.80;58.20;;;;;;5033430;28;20229;-66
2023/03/07 06:08:59;;;;;;;3.83;3.47;;;16.90;58.00;;;;;;5047870;28;20584;-64
2023/03/07 06:11:47;;;;;;;6.68;5.15;;;16.90;58.10;;;;;;5051040;28;20222;-63
2023/03/07 06:14:35;;;;;;;5.70;4.57;;;16.90;58.00;;;;;;5050447;28;20220;-63
2023/03/07 06:17:23;;;;;;;6.85;5.28;;;16.80;58.00;;;;;;5050748;28;20225;-63
2023/03/07 06:20:12;;;;;;;5.20;4.57;;;16.80;57.90;;;;;;5037448;28;20214;-66
2023/03/07 06:23:01;;;;;;;4.65;4.13;;;16.70;58.00;;;;;;5033599;28;20198;-65
2023/03/07 06:25:49;;;;;;;5.07;4.50;;;16.70;58.10;;;;;;5032564;28;20224;-65
2023/03/07 06:28:37;;;;;;;4.72;4.22;;;16.70;58.10;;;;;;5033160;28;20552;-66
2023/03/07 06:31:25;;;;;;;4.57;3.90;;;16.60;58.20;;;;;;5032658;28;20649;-66
2023/03/07 06:34:14;;;;;;;6.13;3.80;;;16.50;58.90;;;;;;5032367;28;20209;-66
2023/03/07 06:37:02;;;;;;;4.40;3.35;;;16.50;58.90;;;;;;5032468;28;20214;-66
2023/03/07 06:39:53;;;;;;;4.05;3.53;;;16.60;75.90;;;;;;5031503;28;20221;-65
2023/03/07 06:42:41;;;;;;;4.65;3.17;;;16.40;59.30;;;;;;5032084;28;20202;-65
2023/03/07 06:45:29;;;;;;;3.15;2.67;;;16.50;59.50;;;;;;5030560;28;20205;-65
2023/03/07 06:48:17;;;;;;;4.18;3.08;;;16.60;59.60;;;;;;5031178;28;20198;-65
2023/03/07 06:51:09;;;;;;;3.50;3.03;;;16.80;59.60;;;;;;5031088;28;20220;-65
2023/03/07 06:53:57;;;;;;;4.20;3.13;;;17.00;59.30;;;;;;5031055;28;20675;-65
2023/03/07 06:56:47;;;;;;;2.63;2.42;;;17.30;59.20;;;;;;5031414;28;20287;-66
2023/03/07 06:59:35;;;;;;;3.28;2.97;;;17.40;58.80;;;;;;5032182;28;20245;-67
2023/03/07 07:02:23;;;;;;;4.03;2.70;;;17.70;58.70;;;;;;5024579;28;20684;-65
2023/03/07 07:05:11;;;;;;;3.03;2.75;;;17.80;58.40;;;;;;5031119;28;20206;-66
2023/03/07 07:07:59;;;;;;;3.30;3.00;;;18.00;58.30;;;;;;5039310;28;20244;-66
2023/03/07 07:10:48;;;;;;;3.15;2.78;;;18.10;58.20;;;;;;5049218;28;20224;-66
2023/03/07 07:13:37;;;;;;;2.50;2.30;;;18.20;58.00;;;;;;5035447;28;20268;-66
2023/03/07 07:16:25;;;;;;;2.72;2.53;;;18.40;57.80;;;;;;5040926;28;20244;-66
2023/03/07 07:19:13;;;;;;;4.35;2.80;;;18.50;57.70;;;;;;5036299;28;20214;-65
2023/03/07 07:22:01;;;;;;;2.35;2.10;;;18.70;57.50;;;;;;5037643;28;20269;-66
2023/03/07 07:24:50;;;;;;;3.33;2.92;;;18.80;57.30;;;;;;5034823;28;20266;-66
2023/03/07 07:27:38;;;;;;;3.00;2.70;;;18.90;57.20;;;;;;5034632;28;20260;-66
2023/03/07 07:30:27;;;;;;;2.58;2.38;;;19.00;57.20;;;;;;5034263;28;20728;-66
2023/03/07 07:33:15;;;;;;;3.80;2.60;;;19.00;57.10;;;;;;5035275;28;20837;-65
2023/03/07 07:36:04;;;;;;;3.45;2.80;;;19.10;57.10;;;;;;5033451;28;20203;-66
2023/03/07 07:38:52;;;;;;;2.58;2.35;;;19.20;57.00;;;;;;5036142;28;20296;-66
2023/03/07 07:41:41;;;;;;;2.60;2.40;;;19.30;56.90;;;;;;5034167;28;20284;-66
2023/03/07 07:44:29;;;;;;;2.70;2.50;;;19.40;56.80;;;;;;5035568;28;20218;-66
2023/03/07 07:47:19;;;;;;;2.80;2.10;;;19.50;56.70;;;;;;5034890;28;20341;-65
2023/03/07 07:50:08;;;;;;;4.25;2.38;;;19.60;56.60;;;;;;5035084;28;20250;-66
2023/03/07 07:52:56;;;;;;;2.92;2.38;;;19.70;56.60;;;;;;5035242;28;20202;-65
2023/03/07 07:55:44;;;;;;;3.67;2.00;;;19.70;56.40;;;;;;5033867;28;20198;-66
2023/03/07 07:58:32;;;;;;;3.45;2.40;;;19.80;56.40;;;;;;5053818;28;20235;-66
2023/03/07 08:01:22;;;;;;;2.50;2.30;;;19.90;56.30;;;;;;5047202;28;20601;-66
2023/03/07 08:04:12;;;;;;;3.00;2.30;;;19.90;56.10;;;;;;5034968;28;20775;-66
2023/03/07 08:07:00;;;;;;;2.40;2.03;;;20.00;56.10;;;;;;5033559;28;20194;-66
2023/03/07 08:09:48;;;;;;;3.00;2.53;;;19.90;64.70;;;;;;5034039;28;20248;-66
2023/03/07 08:12:36;;;;;;;2.97;2.63;;;20.10;56.10;;;;;;5033384;28;20231;-65
2023/03/07 08:15:24;;;;;;;2.38;2.17;;;20.00;55.90;;;;;;5033817;28;20221;-66
2023/03/07 08:18:12;;;;;;;2.88;2.63;;;20.10;56.00;;;;;;5033888;28;20228;-66
2023/03/07 08:21:02;;;;;;;3.58;2.85;;;20.00;56.00;;;;;;5033704;28;20693;-66
2023/03/07 08:23:50;;;;;;;3.53;2.72;;;20.10;56.00;;;;;;5033419;28;20285;-66
2023/03/07 08:26:38;;;;;;;3.72;2.72;;;20.10;56.00;;;;;;5032967;28;20627;-65
2023/03/07 08:29:27;;;;;;;3.10;2.75;;;20.10;56.00;;;;;;5033428;28;20198;-66
2023/03/07 08:32:15;;;;;;;2.13;1.92;;;20.20;56.00;;;;;;5033574;28;20503;-66
2023/03/07 08:35:04;;;;;;;4.05;2.75;;;20.20;56.00;;;;;;5033160;28;20208;-66
2023/03/07 08:37:56;;;;;;;2.50;2.22;;;20.30;56.00;;;;;;5034134;28;20202;-63
2023/03/07 08:40:44;;;;;;;3.03;2.20;;;20.30;56.10;;;;;;5033825;28;20230;-65
2023/03/07 08:43:35;;;;;;;2.85;2.35;;;20.40;56.40;;;;;;5033497;28;20209;-65
2023/03/07 08:46:23;;;;;;;3.95;2.50;;;20.40;56.20;;;;;;5033249;28;20205;-65
2023/03/07 08:49:11;;;;;;;2.08;1.98;;;20.50;56.20;;;;;;5032573;28;20559;-66
2023/03/07 08:51:59;;;;;;;3.45;2.40;;;20.50;56.10;;;;;;5032029;28;20319;-66
2023/03/07 08:54:49;;;;;;;2.35;2.15;;;20.60;56.10;;;;;;5032624;28;20202;-65
2023/03/07 08:57:37;;;;;;;2.50;1.92;;;20.60;56.10;;;;;;5044206;28;20197;-66
2023/03/07 09:00:25;;;;;;;2.20;2.00;;;20.60;56.20;;;;;;5052109;28;20287;-66
2023/03/07 09:03:13;;;;;;;2.78;2.17;;;20.70;56.20;;;;;;5035171;28;20297;-66
2023/03/07 09:06:01;;;;;;;2.67;1.80;;;20.70;56.10;;;;;;5026010;28;20335;-66
2023/03/07 09:08:50;;;;;;;2.20;2.08;;;20.80;56.20;;;;;;5031137;28;20206;-66
2023/03/07 09:11:40;;;;;;;2.85;2.55;;;20.80;56.00;;;;;;5031041;28;20232;-66
2023/03/07 09:14:28;;;;;;;3.15;2.22;;;20.80;56.00;;;;;;5032350;28;20693;-65
2023/03/07 09:17:17;;;;;;;2.38;1.90;;;20.80;56.10;;;;;;5031429;28;20690;-65
2023/03/07 09:20:07;;;;;;;2.50;2.30;;;20.80;56.10;;;;;;5033054;28;20248;-66
2023/03/07 09:22:55;;;;;;;3.22;1.88;;;20.80;56.10;;;;;;5031670;28;20201;-66
2023/03/07 09:25:44;;;;;;;1.83;1.73;;;20.80;56.10;;;;;;5032584;28;20292;-66
2023/03/07 09:28:33;;;;;;;1.80;1.70;;;20.80;56.10;;;;;;5033043;28;20283;-65
2023/03/07 09:31:21;;;;;;;2.00;1.83;;;20.90;56.10;;;;;;5031507;28;20227;-65
2023/03/07 09:34:10;;;;;;;1.95;1.67;;;20.90;56.10;;;;;;5032396;28;20211;-65
2023/03/07 09:36:58;;;;;;;1.90;1.67;;;20.90;56.00;;;;;;5031771;28;20244;-65
2023/03/07 09:39:49;;;;;;;3.08;2.15;;;20.80;64.50;;;;;;5032711;28;20300;-67
2023/03/07 09:42:46;;;;;;;2.75;2.22;;;21.00;56.00;;;;;;5032000;28;20206;-67
2023/03/07 09:45:45;;;;;;;2.28;1.98;;;20.90;55.80;;;;;;5032044;28;20256;-66
2023/03/07 09:49:02;;;;;;;1.83;1.70;;;21.00;55.90;;;;;;5032392;28;20671;-67
2023/03/07 09:51:53;;;;;;;2.33;2.05;;;21.00;55.90;;;;;;5031924;28;20225;-67
2023/03/07 09:54:45;;;;;;;1.83;1.73;;;21.10;56.00;;;;;;5032023;28;20344;-67
2023/03/07 09:57:36;;;;;;;2.08;1.90;;;21.10;55.90;;;;;;5041903;28;20232;-67
2023/03/07 10:00:30;;;;;;;2.17;1.98;;;21.10;55.80;;;;;;5050411;28;20229;-65
2023/03/07 10:03:32;;;;;;;2.15;1.98;;;21.10;55.80;;;;;;5033457;28;20283;-66
2023/03/07 10:06:25;;;;;;;1.98;1.40;;;21.10;55.90;;;;;;5030353;28;20197;-65
2023/03/07 10:09:17;;;;;;;1.77;1.67;;;21.20;56.00;;;;;;5031798;28;20281;-65
2023/03/07 10:12:25;;;;;;;2.15;1.80;;;21.20;55.90;;;;;;5030807;28;20717;-65
2023/03/07 10:15:38;;;;;;;2.22;1.58;;;21.20;55.90;;;;;;5031653;28;20202;-66
2023/03/07 10:18:43;;;;;;;1.85;1.75;;;21.20;56.00;;;;;;5031012;28;20267;-65
2023/03/07 10:21:39;;;;;;;1.60;1.50;;;21.10;55.90;;;;;;5032186;28;20225;-65
2023/03/07 10:24:38;;;;;;;2.78;1.40;;;21.10;56.10;;;;;;5032296;28;20209;-65
2023/03/07 10:27:29;;;;;;;2.22;1.95;;;20.40;55.60;;;;;;5029457;28;20225;-65
2023/03/07 10:30:19;;;;;;;1.63;1.52;;;21.10;56.40;;;;;;5031606;28;20217;-65
2023/03/07 10:33:16;;;;;;;2.03;1.83;;;21.10;56.40;;;;;;5041703;28;20209;-65
2023/03/07 10:36:12;;;;;;;3.85;1.60;;;21.10;56.20;;;;;;5043253;28;20202;-67
2023/03/07 10:39:05;;;;;;;1.52;1.42;;;21.10;56.20;;;;;;5043917;28;20298;-65
2023/03/07 10:41:54;;;;;;;1.67;1.42;;;21.20;56.30;;;;;;5034364;28;20268;-64
2023/03/07 10:44:44;;;;;;;1.70;1.50;;;21.20;56.20;;;;;;5033926;28;20570;-65
2023/03/07 10:47:33;;;;;;;2.58;1.90;;;21.20;56.30;;;;;;5035620;28;20202;-66
2023/03/07 10:50:29;;;;;;;1.60;1.50;;;21.30;56.20;;;;;;5034813;28;20276;-66
2023/03/07 10:53:26;;;;;;;1.38;1.27;;;21.30;56.30;;;;;;5033839;28;20679;-65
2023/03/07 10:56:15;;;;;;;3.65;1.60;;;21.30;56.40;;;;;;5034380;28;20206;-64
2023/03/07 10:59:08;;;;;;;1.65;1.50;;;21.30;56.30;;;;;;5015559;28;20368;-67
2023/03/07 11:01:58;;;;;;;3.08;1.50;;;21.30;56.20;;;;;;5019657;28;20279;-67
2023/03/07 11:04:47;;;;;;;1.63;1.33;;;21.30;56.10;;;;;;5034401;28;20280;-66
2023/03/07 11:07:36;;;;;;;2.33;1.38;;;21.40;56.20;;;;;;5033228;28;20210;-66
2023/03/07 11:10:32;;;;;;;1.30;1.20;;;21.40;56.10;;;;;;5041251;28;20236;-66
2023/03/07 11:13:22;;;;;;;1.55;1.45;;;21.40;56.10;;;;;;5042605;28;20198;-66
2023/03/07 11:16:18;;;;;;;1.30;1.20;;;21.30;56.00;;;;;;5043395;28;20237;-66
2023/03/07 11:19:32;;;;;;;2.20;1.50;;;21.40;56.10;;;;;;5051394;28;20204;-66
2023/03/07 11:22:28;;;;;;;1.77;1.25;;;21.40;56.00;;;;;;5048407;28;20221;-66
2023/03/07 11:25:21;;;;;;;1.58;1.48;;;21.40;56.00;;;;;;5033467;28;20248;-66
2023/03/07 11:28:29;;;;;;;1.50;1.40;;;21.40;56.00;;;;;;5038840;28;20236;-65
2023/03/07 11:31:23;;;;;;;1.35;1.20;;;21.40;56.10;;;;;;5038621;28;20272;-67
2023/03/07 11:34:25;;;;;;;2.35;1.20;;;21.40;55.90;;;;;;5033986;28;20285;-65
2023/03/07 11:37:25;;;;;;;1.30;1.20;;;21.40;56.10;;;;;;5038195;28;20263;-67
2023/03/07 11:40:23;;;;;;;1.25;1.15;;;21.40;56.00;;;;;;5049155;28;20248;-66
2023/03/07 11:43:20;;;;;;;1.30;1.20;;;21.40;56.10;;;;;;5040332;28;20206;-65
2023/03/07 11:46:14;;;;;;;5.88;1.20;;;21.40;55.80;;;;;;5033573;28;20238;-66
2023/03/07 11:49:15;;;;;;;2.53;1.02;;;21.40;55.80;;;;;;5034216;28;20198;-67
2023/03/07 11:52:23;;;;;;;4.78;1.48;;;21.40;55.70;;;;;;5032765;28;20210;-65
2023/03/07 11:55:24;;;;;;;1.48;1.10;;;21.40;56.40;;;;;;5048555;28;20208;-65
2023/03/07 11:58:35;;;;;;;1.52;0.93;;;21.40;55.70;;;;;;5036741;28;20674;-67
2023/03/07 12:01:32;;;;;;;2.00;0.80;;;21.40;55.60;;;;;;5034124;28;20248;-66
2023/03/07 12:04:56;;;;;;;1.42;1.33;;;21.40;55.50;;;;;;5034444;28;20233;-66
2023/03/07 12:08:03;;;;;;;1.13;0.95;;;21.40;55.60;;;;;;5034838;28;20663;-66
2023/03/07 12:11:00;;;;;;;1.63;1.20;;;21.40;55.60;;;;;;5033724;28;20694;-65
2023/03/07 12:13:57;;;;;;;1.25;0.93;;;21.40;55.50;;;;;;5033687;28;20255;-65
2023/03/07 12:16:56;;;;;;;0.80;0.80;;;21.40;55.60;;;;;;5032775;28;20674;-63
2023/03/07 12:20:17;;;;;;;1.10;1.00;;;21.40;55.60;;;;;;5033613;28;20225;-63
2023/03/07 12:23:14;;;;;;;0.90;0.90;;;21.30;55.70;;;;;;5014382;28;20198;-62
2023/03/07 12:26:10;;;;;;;3.55;0.90;;;21.30;55.80;;;;;;5012459;28;20261;-64
2023/03/07 12:29:04;;;;;;;1.98;1.00;;;21.30;56.00;;;;;;5025676;28;20202;-63
2023/03/07 12:31:59;;;;;;;2.00;0.90;;;21.30;56.00;;;;;;5032715;28;20300;-63
2023/03/07 12:34:53;;;;;;;1.35;0.77;;;21.20;56.10;;;;;;5032162;28;20211;-63
2023/03/07 12:37:47;;;;;;;1.95;0.85;;;21.30;56.20;;;;;;5032209;28;20202;-63
2023/03/07 12:40:40;;;;;;;1.45;0.80;;;21.30;56.20;;;;;;5033733;28;20222;-64
2023/03/07 12:43:36;;;;;;;3.90;0.90;;;21.30;56.80;;;;;;5012511;28;20210;-63
2023/03/07 12:46:32;;;;;;;2.13;1.08;;;21.30;56.00;;;;;;5013377;28;20675;-64
2023/03/07 12:49:30;;;;;;;1.15;0.80;;;21.30;56.20;;;;;;5035209;28;20209;-65
2023/03/07 12:52:36;;;;;;;0.80;0.80;;;21.40;56.20;;;;;;5028619;28;20578;-64
2023/03/07 12:55:27;;;;;;;2.38;0.75;;;21.40;56.50;;;;;;5033036;28;20198;-65
2023/03/07 12:58:21;;;;;;;1.88;1.13;;;21.40;56.40;;;;;;5049050;28;20205;-66
2023/03/07 13:01:15;;;;;;;0.90;0.70;;;21.50;56.50;;;;;;5052534;28;20261;-64
2023/03/07 13:04:13;;;;;;;2.10;0.90;;;21.50;56.50;;;;;;5031846;28;20198;-65
2023/03/07 13:07:08;;;;;;;0.90;0.90;;;21.50;56.60;;;;;;5032166;28;20198;-64
2023/03/07 13:09:58;;;;;;;1.38;1.00;;;21.50;70.00;;;;;;5032703;28;20574;-64
2023/03/07 13:12:46;;;;;;;1.05;0.80;;;21.50;56.60;;;;;;5032910;28;20279;-64
2023/03/07 13:16:03;;;;;;;4.18;1.15;;;21.50;56.60;;;;;;5032476;28;20617;-64
2023/03/07 13:18:51;;;;;;;1.35;1.00;;;21.40;56.60;;;;;;5033171;28;20333;-64
2023/03/07 13:21:39;;;;;;;1.50;0.90;;;21.40;56.60;;;;;;5031740;28;20233;-64
2023/03/07 13:24:37;;;;;;;0.73;0.73;;;21.40;56.50;;;;;;5032344;28;20202;-64
2023/03/07 13:27:30;;;;;;;1.25;1.00;;;21.50;56.90;;;;;;5032268;28;20277;-65
2023/03/07 13:30:20;;;;;;;0.90;0.90;;;21.50;56.60;;;;;;5031621;28;20315;-64
2023/03/07 13:33:27;;;;;;;2.50;0.80;;;21.50;56.60;;;;;;5031338;28;20340;-64
2023/03/07 13:36:31;;;;;;;2.55;1.00;;;21.50;56.70;;;;;;5037876;28;20271;-64
2023/03/07 13:39:37;;;;;;;1.13;0.95;;;21.50;56.60;;;;;;5035893;28;20198;-64
2023/03/07 13:42:44;;;;;;;0.90;0.90;;;21.50;56.60;;;;;;5031817;28;20218;-63
2023/03/07 13:45:51;;;;;;;1.00;0.90;;;21.50;56.40;;;;;;5030458;28;20252;-64
2023/03/07 13:48:59;;;;;;;1.45;0.95;;;21.50;56.50;;;;;;5030808;28;20674;-64
2023/03/07 13:52:20;;;;;;;1.27;0.80;;;21.60;56.60;;;;;;5030696;28;20344;-64
2023/03/07 13:55:37;;;;;;;2.65;1.00;;;20.90;56.00;;;;;;5011924;28;20252;-64
2023/03/07 13:58:28;;;;;;;1.00;0.90;;;21.50;56.50;;;;;;5016944;28;20202;-64
2023/03/07 14:01:20;;;;;;;1.20;0.90;;;21.50;56.50;;;;;;5012216;28;20238;-64
2023/03/07 14:04:13;;;;;;;1.15;0.90;;;21.60;56.60;;;;;;5012625;28;20679;-64
2023/03/07 14:07:04;;;;;;;1.00;0.90;;;21.60;56.50;;;;;;5016056;28;20201;-64
2023/03/07 14:09:56;;;;;;;2.13;0.90;;;21.80;71.00;;;;;;5031704;28;20554;-64
2023/03/07 14:13:07;;;;;;;1.60;0.85;;;21.60;56.40;;;;;;5028734;28;20233;-64
2023/03/07 14:16:05;;;;;;;0.80;0.80;;;21.60;56.40;;;;;;5020103;28;20253;-64
2023/03/07 14:19:09;;;;;;;0.73;0.70;;;21.60;56.50;;;;;;5017337;28;20236;-64
2023/03/07 14:22:02;;;;;;;2.60;0.77;;;21.60;56.40;;;;;;5020197;28;20218;-65
2023/03/07 14:25:07;;;;;;;2.58;0.88;;;21.60;56.50;;;;;;5022903;28;20678;-65
2023/03/07 14:27:59;;;;;;;1.65;0.90;;;21.60;56.40;;;;;;5022108;28;20268;-64
2023/03/07 14:30:55;;;;;;;0.88;0.88;;;21.60;56.30;;;;;;5017247;28;20710;-65
2023/03/07 14:33:43;;;;;;;1.20;0.90;;;21.50;56.20;;;;;;5025808;28;20198;-66
2023/03/07 14:36:32;;;;;;;0.95;0.95;;;21.40;56.30;;;;;;5044403;22;20226;-69
2023/03/07 14:39:21;;;;;;;0.98;0.88;;;21.40;56.40;;;;;;5010575;28;20230;-71
2023/03/07 14:42:22;;;;;;;1.20;0.90;;;21.40;56.40;;;;;;5012215;28;20455;-69
2023/03/07 14:45:19;;;;;;;1.10;0.80;;;21.50;71.40;;;;;;5014286;28;20791;-71
2023/03/07 14:48:22;;;;;;;0.75;0.75;;;21.50;56.50;;;;;;5030750;28;20198;-68
2023/03/07 14:51:14;;;;;;;0.95;0.70;;;21.40;56.30;;;;;;5029432;28;20205;-70
2023/03/07 14:54:07;;;;;;;1.63;0.75;;;21.50;56.30;;;;;;5014824;28;20210;-70
2023/03/07 14:56:58;;;;;;;0.80;0.80;;;21.60;56.30;;;;;;5016153;28;20220;-70